Time;durP1;ratioP1;P1;durP2;ratioP2;P2;SDS_P1;SDS_P2;PMS_P1;PMS_P2;Temp;Humidity;BMP_temperature;BMP_pressure;BME280_temperature;BME280_humidity;BME280_pressure;Samples;Min_cycle;Max_cycle;Signal;HPM_P1;HPM_P2
2022/07/16 00:02:55;;;;;;;945.88;293.08;;;;;;;;;;4998127;28;20040;-67
2022/07/16 00:05:20;;;;;;;276.35;73.20;;;;;;;;;;5001258;28;20018;-67
2022/07/16 00:07:46;;;;;;;196.23;51.20;;;;;;;;;;4998684;28;20176;-67
2022/07/16 00:10:11;;;;;;;186.77;46.20;;;;;;;;;;5006691;28;20045;-67
2022/07/16 00:12:36;;;;;;;418.23;109.43;;;;;;;;;;5003244;28;20053;-67
2022/07/16 00:15:03;;;;;;;324.30;83.00;;;;;;;;;;4996139;28;20882;-67
2022/07/16 00:17:28;;;;;;;199.13;53.72;;;;;;;;;;4992932;28;20041;-67
2022/07/16 00:19:53;;;;;;;176.27;48.43;;;;;;;;;;4997198;28;20022;-67
2022/07/16 00:22:18;;;;;;;31.87;13.67;;;;;;;;;;4998529;28;20386;-67
2022/07/16 00:24:43;;;;;;;137.00;37.20;;;;;;;;;;4998448;28;20041;-67
2022/07/16 00:27:09;;;;;;;31.35;11.98;;;;;;;;;;4998778;28;21175;-67
2022/07/16 00:29:34;;;;;;;37.78;14.20;;;;;;;;;;5003315;28;20432;-67
2022/07/16 00:31:59;;;;;;;335.73;76.40;;;;;;;;;;4994759;28;20025;-67
2022/07/16 00:34:24;;;;;;;114.45;29.13;;;;;;;;;;4994969;28;20734;-67
2022/07/16 00:36:50;;;;;;;51.88;16.42;;;;;;;;;;5002044;28;20076;-67
2022/07/16 00:39:16;;;;;;;48.42;15.23;;;;;;;;;;4996649;28;20140;-67
2022/07/16 00:41:42;;;;;;;27.67;11.35;;;;;;;;;;5002055;28;20076;-67
2022/07/16 00:44:09;;;;;;;56.90;16.60;;;;;;;;;;4995559;28;20105;-67
2022/07/16 00:46:35;;;;;;;28.48;11.95;;;;;;;;;;4998348;28;20074;-67
2022/07/16 00:49:00;;;;;;;29.25;10.95;;;;;;;;;;4997171;28;20034;-67
2022/07/16 00:51:25;;;;;;;27.10;11.80;;;;;;;;;;5004355;28;20125;-67
2022/07/16 00:53:51;;;;;;;40.28;16.33;;;;;;;;;;4995752;28;20379;-67
2022/07/16 00:56:16;;;;;;;104.03;27.20;;;;;;;;;;4999510;28;20053;-67
2022/07/16 00:58:42;;;;;;;49.08;16.25;;;;;;;;;;4998162;28;20049;-67
2022/07/16 01:01:08;;;;;;;46.70;16.58;;;;;;;;;;4996604;28;20048;-67
2022/07/16 01:03:33;;;;;;;39.00;14.65;;;;;;;;;;4994737;28;20161;-67
2022/07/16 01:05:58;;;;;;;61.03;19.63;;;;;;;;;;4998443;28;20396;-66
2022/07/16 01:08:24;;;;;;;25.88;11.00;;;;;;;;;;4997371;28;20065;-67
2022/07/16 01:10:50;;;;;;;34.65;10.48;;;;;;;;;;5001976;28;20407;-67
2022/07/16 01:13:15;;;;;;;20.45;10.98;;;;;;;;;;5000125;28;20064;-67
2022/07/16 01:15:41;;;;;;;24.88;11.40;;;;;;;;;;4997516;28;20061;-67
2022/07/16 01:18:06;;;;;;;28.73;10.70;;;;;;;;;;5000170;28;20021;-67
2022/07/16 01:20:31;;;;;;;26.60;10.00;;;;;;;;;;5000092;28;20439;-67
2022/07/16 01:22:56;;;;;;;21.67;10.47;;;;;;;;;;5001892;28;20030;-67
2022/07/16 01:25:21;;;;;;;25.27;11.13;;;;;;;;;;5002929;28;20387;-67
2022/07/16 01:27:47;;;;;;;30.50;11.47;;;;;;;;;;5004272;28;20400;-67
2022/07/16 01:30:12;;;;;;;27.92;10.73;;;;;;;;;;5000201;28;20741;-67
2022/07/16 01:32:38;;;;;;;24.42;9.98;;;;;;;;;;4996536;28;20034;-67
2022/07/16 01:35:03;;;;;;;29.52;9.88;;;;;;;;;;4998363;28;20068;-67
2022/07/16 01:37:29;;;;;;;23.90;9.90;;;;;;;;;;5006565;28;20470;-67
2022/07/16 01:39:54;;;;;;;32.15;10.85;;;;;;;;;;5001900;28;20490;-67
2022/07/16 01:42:19;;;;;;;96.00;28.90;;;;;;;;;;4995713;28;20381;-67
2022/07/16 01:44:44;;;;;;;36.70;13.73;;;;;;;;;;4994524;28;20290;-67
2022/07/16 01:47:10;;;;;;;20.60;8.90;;;;;;;;;;4999258;28;20101;-67
2022/07/16 01:49:36;;;;;;;26.55;10.50;;;;;;;;;;4999904;28;20037;-67
2022/07/16 01:52:12;;;;;;;22.92;10.43;;;;;;;;;;5000241;28;20030;-67
2022/07/16 01:54:42;;;;;;;25.17;10.43;;;;;;;;;;4995811;28;20104;-67
2022/07/16 01:57:07;;;;;;;33.85;11.07;;;;;;;;;;5001207;28;20092;-67
2022/07/16 01:59:32;;;;;;;22.35;9.75;;;;;;;;;;4997509;28;20034;-67
2022/07/16 02:01:58;;;;;;;26.43;10.53;;;;;;;;;;4998642;28;20022;-67
2022/07/16 02:04:23;;;;;;;18.92;9.30;;;;;;;;;;5000649;28;20785;-67
2022/07/16 02:06:48;;;;;;;28.83;9.85;;;;;;;;;;5000980;28;20026;-67
2022/07/16 02:09:13;;;;;;;21.67;8.97;;;;;;;;;;5000494;28;20029;-67
2022/07/16 02:11:38;;;;;;;17.93;9.33;;;;;;;;;;4998402;28;20452;-67
2022/07/16 02:14:04;;;;;;;25.65;10.32;;;;;;;;;;4997639;28;20282;-67
2022/07/16 02:16:29;;;;;;;26.83;10.07;;;;;;;;;;5000913;28;20018;-67
2022/07/16 02:18:54;;;;;;;21.23;9.77;;;;;;;;;;5003377;28;20022;-67
2022/07/16 02:21:19;;;;;;;25.77;10.05;;;;;;;;;;5000150;28;20037;-67
2022/07/16 02:23:44;;;;;;;28.27;12.20;;;;;;;;;;4999350;28;20141;-67
2022/07/16 02:26:09;;;;;;;22.70;9.38;;;;;;;;;;5000227;28;20029;-67
2022/07/16 02:28:35;;;;;;;26.00;9.30;;;;;;;;;;4996869;28;20042;-67
2022/07/16 02:31:00;;;;;;;31.13;9.85;;;;;;;;;;5002811;28;20310;-67
2022/07/16 02:33:25;;;;;;;28.57;10.03;;;;;;;;;;4996866;28;20386;-67
2022/07/16 02:35:50;;;;;;;27.40;11.57;;;;;;;;;;5000621;28;20081;-67
2022/07/16 02:38:15;;;;;;;30.67;10.00;;;;;;;;;;5000818;28;20268;-67
2022/07/16 02:40:41;;;;;;;24.10;9.85;;;;;;;;;;5002620;28;20400;-68
2022/07/16 02:43:07;;;;;;;26.17;10.88;;;;;;;;;;4999677;28;20030;-67
2022/07/16 02:45:33;;;;;;;24.15;10.75;;;;;;;;;;5003681;28;20036;-67
2022/07/16 02:47:59;;;;;;;26.90;11.02;;;;;;;;;;5001207;28;20021;-68
2022/07/16 02:50:24;;;;;;;23.38;10.60;;;;;;;;;;5000678;28;20057;-67
2022/07/16 02:52:50;;;;;;;24.42;10.73;;;;;;;;;;5000329;28;20431;-67
2022/07/16 02:55:15;;;;;;;21.00;10.07;;;;;;;;;;4995598;28;20495;-68
2022/07/16 02:57:41;;;;;;;30.73;11.20;;;;;;;;;;4997469;28;20511;-67
2022/07/16 03:00:09;;;;;;;26.73;10.90;;;;;;;;;;5000927;28;20018;-68
2022/07/16 03:02:35;;;;;;;29.13;11.00;;;;;;;;;;4997158;28;20097;-68
2022/07/16 03:05:00;;;;;;;35.03;11.20;;;;;;;;;;5000604;28;20030;-67
2022/07/16 03:07:26;;;;;;;25.70;10.75;;;;;;;;;;4999361;28;20337;-67
2022/07/16 03:09:51;;;;;;;28.35;10.52;;;;;;;;;;5002863;28;20022;-67
2022/07/16 03:12:18;;;;;;;24.97;10.63;;;;;;;;;;4998206;28;20018;-67
2022/07/16 03:14:43;;;;;;;30.55;11.15;;;;;;;;;;5002949;28;20263;-67
2022/07/16 03:17:08;;;;;;;28.03;11.20;;;;;;;;;;5000034;28;20029;-67
2022/07/16 03:19:33;;;;;;;21.10;10.43;;;;;;;;;;5000528;28;20695;-67
2022/07/16 03:21:58;;;;;;;27.58;10.55;;;;;;;;;;5000079;28;20873;-67
2022/07/16 03:24:24;;;;;;;21.83;11.23;;;;;;;;;;5001190;28;20077;-67
2022/07/16 03:26:49;;;;;;;28.02;11.18;;;;;;;;;;4996433;28;20688;-67
2022/07/16 03:29:14;;;;;;;25.30;10.48;;;;;;;;;;5002234;28;20060;-68
2022/07/16 03:31:39;;;;;;;24.13;10.85;;;;;;;;;;4993945;28;20026;-67
2022/07/16 03:34:04;;;;;;;22.97;11.23;;;;;;;;;;4994942;28;20048;-67
2022/07/16 03:36:29;;;;;;;28.38;10.13;;;;;;;;;;4998047;28;20120;-67
2022/07/16 03:39:06;;;;;;;25.67;10.43;;;;;;;;;;4996885;28;20375;-67
2022/07/16 03:41:33;;;;;;;34.03;13.23;;;;;;;;;;4993496;28;20538;-67
2022/07/16 03:44:03;;;;;;;26.63;10.73;;;;;;;;;;4993254;28;20029;-67
2022/07/16 03:46:29;;;;;;;27.92;11.70;;;;;;;;;;4992928;28;20025;-67
2022/07/16 03:48:54;;;;;;;28.77;10.27;;;;;;;;;;5002031;28;20400;-68
2022/07/16 03:51:19;;;;;;;27.27;11.55;;;;;;;;;;4999337;28;20125;-68
2022/07/16 03:53:44;;;;;;;36.63;11.50;;;;;;;;;;4993097;28;20030;-68
2022/07/16 03:56:09;;;;;;;32.28;11.40;;;;;;;;;;4994253;28;22237;-67
2022/07/16 03:58:35;;;;;;;25.60;10.80;;;;;;;;;;4995019;28;20374;-68
2022/07/16 04:01:00;;;;;;;24.83;10.73;;;;;;;;;;4997215;28;20402;-67
2022/07/16 04:03:25;;;;;;;31.48;11.02;;;;;;;;;;4999708;28;20376;-67
2022/07/16 04:05:51;;;;;;;31.30;11.00;;;;;;;;;;4996894;28;20049;-68
2022/07/16 04:08:16;;;;;;;26.03;10.30;;;;;;;;;;5001806;28;20267;-67
2022/07/16 04:10:41;;;;;;;29.95;11.02;;;;;;;;;;4998370;28;20267;-67
2022/07/16 04:13:06;;;;;;;33.13;11.10;;;;;;;;;;4993866;28;20124;-67
2022/07/16 04:15:31;;;;;;;22.13;11.57;;;;;;;;;;4999116;28;20030;-67
2022/07/16 04:17:57;;;;;;;27.17;11.10;;;;;;;;;;4993295;28;20041;-67
2022/07/16 04:20:22;;;;;;;30.53;11.63;;;;;;;;;;5000797;28;20057;-68
2022/07/16 04:22:48;;;;;;;27.55;12.65;;;;;;;;;;5002173;28;20271;-68
2022/07/16 04:25:13;;;;;;;26.40;10.77;;;;;;;;;;5003795;28;20033;-67
2022/07/16 04:27:38;;;;;;;35.63;11.93;;;;;;;;;;5003965;28;20064;-68
2022/07/16 04:30:04;;;;;;;28.30;11.52;;;;;;;;;;5004952;28;20034;-68
2022/07/16 04:32:29;;;;;;;33.28;12.75;;;;;;;;;;4999394;28;20037;-67
2022/07/16 04:34:54;;;;;;;34.47;12.45;;;;;;;;;;4996725;28;20036;-68
2022/07/16 04:37:19;;;;;;;32.95;12.18;;;;;;;;;;5002075;28;20061;-68
2022/07/16 04:39:45;;;;;;;40.40;13.52;;;;;;;;;;5008950;28;20033;-67
2022/07/16 04:42:10;;;;;;;52.03;13.82;;;;;;;;;;5002428;28;20023;-68
2022/07/16 04:44:35;;;;;;;46.07;15.57;;;;;;;;;;4999184;28;20031;-67
2022/07/16 04:47:00;;;;;;;40.80;15.77;;;;;;;;;;4997873;28;20271;-67
2022/07/16 04:49:25;;;;;;;42.97;15.13;;;;;;;;;;4999104;28;20049;-68
2022/07/16 04:51:51;;;;;;;40.47;14.93;;;;;;;;;;5002547;28;20292;-68
2022/07/16 04:54:16;;;;;;;50.30;15.70;;;;;;;;;;4996881;28;20029;-68
2022/07/16 04:56:41;;;;;;;45.58;15.38;;;;;;;;;;5002154;28;20271;-68
2022/07/16 04:59:06;;;;;;;38.83;14.20;;;;;;;;;;5002167;28;20083;-68
2022/07/16 05:01:31;;;;;;;48.10;14.77;;;;;;;;;;4999011;28;20632;-67
2022/07/16 05:03:57;;;;;;;40.80;13.30;;;;;;;;;;4995536;28;20053;-69
2022/07/16 05:06:22;;;;;;;47.23;14.07;;;;;;;;;;5006131;28;20499;-68
2022/07/16 05:08:47;;;;;;;36.13;13.52;;;;;;;;;;5003020;28;20307;-68
2022/07/16 05:11:12;;;;;;;42.95;15.10;;;;;;;;;;5002143;28;20022;-68
2022/07/16 05:13:38;;;;;;;39.30;13.17;;;;;;;;;;4999511;28;20025;-68
2022/07/16 05:16:03;;;;;;;32.13;12.95;;;;;;;;;;5002674;28;20543;-68
2022/07/16 05:18:28;;;;;;;33.35;13.35;;;;;;;;;;5003968;28;20228;-68
2022/07/16 05:20:53;;;;;;;36.47;12.73;;;;;;;;;;4994033;28;20029;-68
2022/07/16 05:23:18;;;;;;;33.85;12.00;;;;;;;;;;4994725;28;20029;-68
2022/07/16 05:25:44;;;;;;;29.27;12.33;;;;;;;;;;4995348;28;20096;-68
2022/07/16 05:28:09;;;;;;;32.10;11.77;;;;;;;;;;5000212;28;20295;-68
2022/07/16 05:30:34;;;;;;;27.57;11.40;;;;;;;;;;5000833;28;20022;-68
2022/07/16 05:32:59;;;;;;;35.80;11.63;;;;;;;;;;4999762;28;20097;-69
2022/07/16 05:35:24;;;;;;;29.30;11.53;;;;;;;;;;5001392;28;20025;-69
2022/07/16 05:37:49;;;;;;;33.80;11.18;;;;;;;;;;5001280;28;20464;-68
2022/07/16 05:40:15;;;;;;;32.47;12.32;;;;;;;;;;5004279;28;20112;-69
2022/07/16 05:42:40;;;;;;;26.23;11.23;;;;;;;;;;5002060;28;20470;-67
2022/07/16 05:45:05;;;;;;;30.60;11.25;;;;;;;;;;4996885;28;20117;-68
2022/07/16 05:47:34;;;;;;;25.83;9.68;;;;;;;;;;4997955;28;20028;-68
2022/07/16 05:50:02;;;;;;;17.38;8.65;;;;;;;;;;5001907;28;20029;-68
2022/07/16 05:52:28;;;;;;;16.05;7.32;;;;;;;;;;4997695;28;20036;-68
2022/07/16 05:54:53;;;;;;;13.38;5.35;;;;;;;;;;4998136;28;20026;-70
2022/07/16 05:57:18;;;;;;;15.00;5.20;;;;;;;;;;4998471;28;20520;-68
2022/07/16 05:59:43;;;;;;;14.20;5.43;;;;;;;;;;4998379;28;20053;-68
2022/07/16 06:02:08;;;;;;;7.50;4.28;;;;;;;;;;4999973;28;20033;-68
2022/07/16 06:04:34;;;;;;;12.95;4.13;;;;;;;;;;5004003;28;20038;-68
2022/07/16 06:06:59;;;;;;;12.20;4.60;;;;;;;;;;5003297;28;20060;-69
2022/07/16 06:09:24;;;;;;;10.20;4.05;;;;;;;;;;5003456;28;20025;-69
2022/07/16 06:11:49;;;;;;;12.70;4.13;;;;;;;;;;4995865;28;20025;-69
2022/07/16 06:14:15;;;;;;;10.32;4.28;;;;;;;;;;4995793;28;20068;-68
2022/07/16 06:16:40;;;;;;;7.70;3.97;;;;;;;;;;4998005;28;20033;-68
2022/07/16 06:19:05;;;;;;;14.70;3.72;;;;;;;;;;5007734;28;20026;-68
2022/07/16 06:21:31;;;;;;;12.68;3.03;;;;;;;;;;4999419;28;20038;-69
2022/07/16 06:23:56;;;;;;;12.40;3.22;;;;;;;;;;5000332;28;20065;-70
2022/07/16 06:26:21;;;;;;;6.60;2.90;;;;;;;;;;5001304;28;20691;-70
2022/07/16 06:28:46;;;;;;;8.32;2.92;;;;;;;;;;4999867;28;20078;-70
2022/07/16 06:31:11;;;;;;;5.57;2.37;;;;;;;;;;5004379;28;20121;-70
2022/07/16 06:33:36;;;;;;;6.93;2.40;;;;;;;;;;4996208;28;20029;-69
2022/07/16 06:36:02;;;;;;;8.13;2.33;;;;;;;;;;4999733;28;20017;-70
2022/07/16 06:38:27;;;;;;;7.68;2.28;;;;;;;;;;4997781;28;20274;-69
2022/07/16 06:40:52;;;;;;;3.30;2.00;;;;;;;;;;5001356;28;20101;-68
2022/07/16 06:43:17;;;;;;;4.47;2.17;;;;;;;;;;4997225;28;20267;-69
2022/07/16 06:45:46;;;;;;;5.13;1.90;;;;;;;;;;4994634;28;20018;-69
2022/07/16 06:48:11;;;;;;;6.63;2.20;;;;;;;;;;4994057;28;20025;-69
2022/07/16 06:50:36;;;;;;;4.90;2.20;;;;;;;;;;5000674;28;20036;-69
2022/07/16 06:53:01;;;;;;;5.87;1.70;;;;;;;;;;4998120;28;20290;-68
2022/07/16 06:55:26;;;;;;;11.77;1.80;;;;;;;;;;5000286;28;20500;-70
2022/07/16 06:57:52;;;;;;;5.60;1.80;;;;;;;;;;5000842;28;20096;-73
2022/07/16 07:00:17;;;;;;;6.53;2.15;;;;;;;;;;4999217;28;20298;-70
2022/07/16 07:02:42;;;;;;;9.67;2.13;;;;;;;;;;5003614;28;20048;-70
2022/07/16 07:05:07;;;;;;;6.33;2.17;;;;;;;;;;5013702;28;20057;-71
2022/07/16 07:07:33;;;;;;;7.00;1.75;;;;;;;;;;5012033;28;20263;-71
2022/07/16 07:09:58;;;;;;;3.90;1.98;;;;;;;;;;5001473;28;20688;-69
2022/07/16 07:12:23;;;;;;;8.07;2.10;;;;;;;;;;4998768;28;20463;-70
2022/07/16 07:14:48;;;;;;;9.88;2.20;;;;;;;;;;4992700;28;20831;-70
2022/07/16 07:17:14;;;;;;;8.57;2.40;;;;;;;;;;4999180;28;20034;-68
2022/07/16 07:19:39;;;;;;;6.20;2.60;;;;;;;;;;4997706;28;20029;-71
2022/07/16 07:22:04;;;;;;;12.93;2.40;;;;;;;;;;4997028;28;20125;-71
2022/07/16 07:24:29;;;;;;;13.95;2.47;;;;;;;;;;4999752;28;20484;-70
2022/07/16 07:26:54;;;;;;;5.90;2.07;;;;;;;;;;4999272;28;20110;-71
2022/07/16 07:29:19;;;;;;;8.30;2.28;;;;;;;;;;5001959;28;20752;-69
2022/07/16 07:31:44;;;;;;;8.70;2.23;;;;;;;;;;4995705;28;20030;-69
2022/07/16 07:34:10;;;;;;;5.33;2.00;;;;;;;;;;5000883;28;20022;-69
2022/07/16 07:36:35;;;;;;;5.67;1.60;;;;;;;;;;4996340;28;20276;-70
2022/07/16 07:39:00;;;;;;;7.65;1.80;;;;;;;;;;5001478;28;20022;-71
2022/07/16 07:41:25;;;;;;;6.27;2.33;;;;;;;;;;4999242;28;20069;-71
2022/07/16 07:43:50;;;;;;;8.23;2.10;;;;;;;;;;4999423;28;20049;-72
2022/07/16 07:46:15;;;;;;;4.43;2.13;;;;;;;;;;4999404;28;20025;-70
2022/07/16 07:48:41;;;;;;;4.40;2.07;;;;;;;;;;5001320;28;20117;-72
2022/07/16 07:51:06;;;;;;;4.77;1.70;;;;;;;;;;5001933;28;20041;-71
2022/07/16 07:53:31;;;;;;;3.93;1.77;;;;;;;;;;4996600;28;20048;-71
2022/07/16 07:55:56;;;;;;;12.50;2.08;;;;;;;;;;5004264;28;20022;-70
2022/07/16 07:58:21;;;;;;;3.25;1.75;;;;;;;;;;5001504;28;20030;-70
2022/07/16 08:00:47;;;;;;;6.23;1.80;;;;;;;;;;5007442;28;20029;-72
2022/07/16 08:03:12;;;;;;;9.93;2.47;;;;;;;;;;4998991;28;20022;-71
2022/07/16 08:05:37;;;;;;;6.00;2.15;;;;;;;;;;5006427;28;21471;-71
2022/07/16 08:08:03;;;;;;;8.70;1.90;;;;;;;;;;4996625;28;20044;-70
2022/07/16 08:10:28;;;;;;;11.35;1.73;;;;;;;;;;4996853;28;20037;-72
2022/07/16 08:12:53;;;;;;;3.93;1.60;;;;;;;;;;5005442;28;20104;-72
2022/07/16 08:15:18;;;;;;;6.30;1.70;;;;;;;;;;4994258;28;20263;-70
2022/07/16 08:17:43;;;;;;;9.20;1.90;;;;;;;;;;5001705;28;20367;-73
2022/07/16 08:20:09;;;;;;;4.15;1.50;;;;;;;;;;5000130;28;20072;-71
2022/07/16 08:22:34;;;;;;;6.78;1.50;;;;;;;;;;4998390;28;20033;-71
2022/07/16 08:27:43;;;;;;;4.82;1.80;;;;;;;;;;4999258;28;20937;-70
2022/07/16 08:30:09;;;;;;;6.15;1.90;;;;;;;;;;4998436;28;20148;-69
2022/07/16 08:32:34;;;;;;;4.85;1.45;;;;;;;;;;5002149;28;20710;-70
2022/07/16 08:34:59;;;;;;;8.97;2.00;;;;;;;;;;4998527;28;20022;-69
2022/07/16 08:37:38;;;;;;;4.70;1.50;;;;;;;;;;5000371;28;20653;-69
2022/07/16 08:40:04;;;;;;;6.65;1.40;;;;;;;;;;4998207;28;20267;-70
2022/07/16 08:42:31;;;;;;;3.63;1.52;;;;;;;;;;4996844;28;20026;-71
2022/07/16 08:44:57;;;;;;;4.30;1.70;;;;;;;;;;4995553;28;20029;-69
2022/07/16 08:47:22;;;;;;;17.23;2.10;;;;;;;;;;4999721;28;20081;-70
2022/07/16 08:49:49;;;;;;;4.22;1.70;;;;;;;;;;4992799;28;20034;-74
2022/07/16 08:52:14;;;;;;;8.30;1.70;;;;;;;;;;4998155;28;20040;-72
2022/07/16 08:54:40;;;;;;;4.72;1.77;;;;;;;;;;4995529;28;20018;-72
2022/07/16 08:57:05;;;;;;;10.85;2.05;;;;;;;;;;5000327;28;20021;-72
2022/07/16 08:59:31;;;;;;;8.32;1.85;;;;;;;;;;5000401;28;21751;-70
2022/07/16 09:01:56;;;;;;;7.13;1.85;;;;;;;;;;4999759;28;20034;-72
2022/07/16 09:04:21;;;;;;;9.00;1.67;;;;;;;;;;5001742;28;20880;-72
2022/07/16 09:06:46;;;;;;;6.13;1.92;;;;;;;;;;5000334;28;20026;-70
2022/07/16 09:09:12;;;;;;;7.05;1.83;;;;;;;;;;4999026;28;20026;-70
2022/07/16 09:11:37;;;;;;;13.10;2.00;;;;;;;;;;4996913;28;20060;-69
2022/07/16 09:14:08;;;;;;;11.00;1.80;;;;;;;;;;5003787;28;20475;-69
2022/07/16 09:16:33;;;;;;;5.32;1.83;;;;;;;;;;4998583;28;20052;-71
2022/07/16 09:19:11;;;;;;;6.70;1.73;;;;;;;;;;4998347;28;20018;-70
2022/07/16 09:21:37;;;;;;;6.00;1.73;;;;;;;;;;4998575;28;20095;-69
2022/07/16 09:24:03;;;;;;;6.53;1.92;;;;;;;;;;5000359;28;20033;-70
2022/07/16 09:26:28;;;;;;;11.07;2.28;;;;;;;;;;5000760;28;20057;-70
2022/07/16 09:28:54;;;;;;;3.65;1.63;;;;;;;;;;5001277;28;20101;-69
2022/07/16 09:31:31;;;;;;;7.00;1.73;;;;;;;;;;4998256;28;20030;-69
2022/07/16 09:34:04;;;;;;;6.25;1.90;;;;;;;;;;4996672;28;20180;-68
2022/07/16 09:36:29;;;;;;;4.28;1.70;;;;;;;;;;5000189;28;20022;-67
2022/07/16 09:38:55;;;;;;;4.47;1.80;;;;;;;;;;4998064;28;20435;-67
2022/07/16 09:41:20;;;;;;;7.97;1.80;;;;;;;;;;4998754;28;20375;-68
2022/07/16 09:43:46;;;;;;;7.65;1.90;;;;;;;;;;5000802;28;20111;-71
2022/07/16 09:46:18;;;;;;;9.88;1.92;;;;;;;;;;5000902;28;20029;-70
2022/07/16 09:48:44;;;;;;;9.15;2.10;;;;;;;;;;5006563;28;20029;-70
2022/07/16 09:51:15;;;;;;;4.95;2.03;;;;;;;;;;4996055;28;20120;-70
2022/07/16 09:53:43;;;;;;;5.63;2.00;;;;;;;;;;5016004;28;20467;-68
2022/07/16 09:56:09;;;;;;;7.32;1.92;;;;;;;;;;4994632;28;20018;-69
2022/07/16 09:58:36;;;;;;;4.10;1.65;;;;;;;;;;5000945;28;20443;-69
2022/07/16 10:01:02;;;;;;;13.65;2.10;;;;;;;;;;5001425;28;20029;-69
2022/07/16 10:03:27;;;;;;;7.10;2.17;;;;;;;;;;4997382;28;20083;-69
2022/07/16 10:05:53;;;;;;;8.55;1.75;;;;;;;;;;5000700;28;20108;-70
2022/07/16 10:08:18;;;;;;;6.50;1.95;;;;;;;;;;4997584;28;20022;-70
2022/07/16 10:10:44;;;;;;;6.97;1.73;;;;;;;;;;4999520;28;20034;-70
2022/07/16 10:13:09;;;;;;;7.25;1.90;;;;;;;;;;5001439;28;20364;-71
2022/07/16 10:15:35;;;;;;;11.65;1.92;;;;;;;;;;4999030;28;20212;-69
2022/07/16 10:18:00;;;;;;;10.10;2.20;;;;;;;;;;5002877;28;20018;-71
2022/07/16 10:20:25;;;;;;;7.40;2.40;;;;;;;;;;5003117;28;20488;-71
2022/07/16 10:22:51;;;;;;;2.92;1.50;;;;;;;;;;5002558;28;20738;-70
2022/07/16 10:25:22;;;;;;;7.10;1.77;;;;;;;;;;5003758;28;20498;-68
2022/07/16 10:27:48;;;;;;;10.55;2.50;;;;;;;;;;5002500;28;20041;-70
2022/07/16 10:30:16;;;;;;;4.15;1.75;;;;;;;;;;5001805;28;20033;-71
2022/07/16 10:33:06;;;;;;;7.32;1.90;;;;;;;;;;5001269;28;20037;-69
2022/07/16 10:35:31;;;;;;;5.38;1.67;;;;;;;;;;5002434;28;20122;-69
2022/07/16 10:38:04;;;;;;;4.65;1.48;;;;;;;;;;5000996;28;20075;-69
2022/07/16 10:40:29;;;;;;;8.48;1.80;;;;;;;;;;5004060;28;20018;-68
2022/07/16 10:43:10;;;;;;;8.07;1.90;;;;;;;;;;5001907;28;20053;-68
2022/07/16 10:45:56;;;;;;;6.90;2.00;;;;;;;;;;5003901;28;20313;-69
2022/07/16 10:48:26;;;;;;;15.07;2.28;;;;;;;;;;5001628;28;20041;-68
2022/07/16 10:51:08;;;;;;;8.55;2.05;;;;;;;;;;5004413;28;20034;-69
2022/07/16 10:53:52;;;;;;;9.27;2.50;;;;;;;;;;5003165;28;20026;-68
2022/07/16 10:56:37;;;;;;;9.32;1.77;;;;;;;;;;5003592;28;20045;-69
2022/07/16 10:59:03;;;;;;;12.13;2.03;;;;;;;;;;5000055;28;20030;-70
2022/07/16 11:01:29;;;;;;;6.57;1.63;;;;;;;;;;5000000;28;20116;-70
2022/07/16 11:03:54;;;;;;;5.70;2.47;;;;;;;;;;5000459;28;20029;-69
2022/07/16 11:06:22;;;;;;;4.90;1.90;;;;;;;;;;5002225;28;20361;-70
2022/07/16 11:08:57;;;;;;;6.70;2.08;;;;;;;;;;5006100;28;20101;-69
2022/07/16 11:11:23;;;;;;;14.43;2.38;;;;;;;;;;5002320;28;20038;-68
2022/07/16 11:13:52;;;;;;;9.07;2.30;;;;;;;;;;5004877;28;20033;-72
2022/07/16 11:16:17;;;;;;;4.47;1.60;;;;;;;;;;5005303;28;20018;-72
2022/07/16 11:18:42;;;;;;;6.75;2.13;;;;;;;;;;4997817;28;20431;-75
2022/07/16 11:21:08;;;;;;;5.63;2.00;;;;;;;;;;5003702;28;20030;-70
2022/07/16 11:23:50;;;;;;;13.10;2.13;;;;;;;;;;5002608;28;20026;-71
2022/07/16 11:26:15;;;;;;;6.28;2.03;;;;;;;;;;5004643;28;20044;-69
2022/07/16 11:28:53;;;;;;;10.88;2.10;;;;;;;;;;4998420;28;20022;-69
2022/07/16 11:31:34;;;;;;;8.30;1.98;;;;;;;;;;5004393;28;20056;-70
2022/07/16 11:34:02;;;;;;;8.93;1.98;;;;;;;;;;5002996;28;20018;-64
2022/07/16 11:36:28;;;;;;;9.00;2.60;;;;;;;;;;5002534;28;20026;-69
2022/07/16 11:39:04;;;;;;;5.13;2.20;;;;;;;;;;5004947;28;20054;-68
2022/07/16 11:41:30;;;;;;;4.85;1.90;;;;;;;;;;5005980;28;20149;-71
2022/07/16 11:43:55;;;;;;;7.78;2.00;;;;;;;;;;4995359;28;20026;-70
2022/07/16 11:46:24;;;;;;;10.77;3.00;;;;;;;;;;4997541;28;20488;-73
2022/07/16 11:48:50;;;;;;;9.85;2.20;;;;;;;;;;4994810;28;20307;-72
2022/07/16 11:51:15;;;;;;;8.77;3.00;;;;;;;;;;4995087;28;20041;-72
2022/07/16 11:53:40;;;;;;;5.17;2.07;;;;;;;;;;5002725;28;20366;-69
2022/07/16 11:56:06;;;;;;;5.75;2.28;;;;;;;;;;5000031;28;20024;-70
2022/07/16 11:58:31;;;;;;;11.75;2.10;;;;;;;;;;4998488;28;20030;-68
2022/07/16 12:00:56;;;;;;;8.25;2.10;;;;;;;;;;5002963;28;20480;-69
2022/07/16 12:03:22;;;;;;;8.00;2.03;;;;;;;;;;5001259;28;20026;-70
2022/07/16 12:05:47;;;;;;;11.68;2.40;;;;;;;;;;5003038;28;20034;-70
2022/07/16 12:08:13;;;;;;;5.53;2.13;;;;;;;;;;4998609;28;20396;-71
2022/07/16 12:10:38;;;;;;;9.73;2.03;;;;;;;;;;5001981;28;20496;-69
2022/07/16 12:13:04;;;;;;;14.40;2.60;;;;;;;;;;4999655;28;20038;-69
2022/07/16 12:15:29;;;;;;;10.80;2.70;;;;;;;;;;5007179;28;20060;-73
2022/07/16 12:17:55;;;;;;;8.57;2.80;;;;;;;;;;5004025;28;20046;-72
2022/07/16 12:20:26;;;;;;;4.90;2.10;;;;;;;;;;5007794;28;20021;-72
2022/07/16 12:23:08;;;;;;;9.20;2.30;;;;;;;;;;5004922;28;20025;-69
2022/07/16 12:25:38;;;;;;;8.77;2.20;;;;;;;;;;4999992;28;20022;-69
2022/07/16 12:28:10;;;;;;;10.10;2.28;;;;;;;;;;5001710;28;20049;-71
2022/07/16 12:30:38;;;;;;;11.67;2.03;;;;;;;;;;4999772;28;20436;-70
2022/07/16 12:33:04;;;;;;;5.80;1.95;;;;;;;;;;5000404;28;20382;-71
2022/07/16 12:35:40;;;;;;;14.65;2.30;;;;;;;;;;4997449;28;20021;-70
2022/07/16 12:38:05;;;;;;;9.52;2.28;;;;;;;;;;4999990;28;20083;-71
2022/07/16 12:40:31;;;;;;;10.23;2.30;;;;;;;;;;5000973;28;20046;-69
2022/07/16 12:42:57;;;;;;;13.23;2.50;;;;;;;;;;4998151;28;20468;-71
2022/07/16 12:45:23;;;;;;;7.95;2.47;;;;;;;;;;4997351;28;20026;-70
2022/07/16 12:47:48;;;;;;;13.90;1.90;;;;;;;;;;5001477;28;20468;-70
2022/07/16 12:50:13;;;;;;;4.65;2.55;;;;;;;;;;4997229;28;20124;-69
2022/07/16 12:52:38;;;;;;;11.27;2.50;;;;;;;;;;5000862;28;20034;-71
2022/07/16 13:00:33;;;;;;;12.15;2.50;;;;;;;;;;5001178;28;20634;-71
2022/07/16 13:02:58;;;;;;;11.90;2.22;;;;;;;;;;4994855;28;20030;-70
2022/07/16 13:05:25;;;;;;;8.30;2.30;;;;;;;;;;4999124;28;20037;-70
2022/07/16 13:07:50;;;;;;;42.08;4.68;;;;;;;;;;5000814;28;20060;-68
2022/07/16 13:10:15;;;;;;;8.13;2.10;;;;;;;;;;4994158;28;20033;-69
2022/07/16 13:12:40;;;;;;;11.93;2.40;;;;;;;;;;4995273;28;20022;-70
2022/07/16 13:15:06;;;;;;;9.77;2.65;;;;;;;;;;4995605;28;20042;-70
2022/07/16 13:17:31;;;;;;;9.57;2.47;;;;;;;;;;5002107;28;20728;-69
2022/07/16 13:19:56;;;;;;;15.90;2.30;;;;;;;;;;4997052;28;20026;-70
2022/07/16 13:22:21;;;;;;;11.60;1.80;;;;;;;;;;4999923;28;20051;-70
2022/07/16 13:24:46;;;;;;;11.20;2.20;;;;;;;;;;4999278;28;20676;-69
2022/07/16 13:27:11;;;;;;;11.68;2.13;;;;;;;;;;5002294;28;20539;-68
2022/07/16 13:29:37;;;;;;;11.63;2.03;;;;;;;;;;4997740;28;20483;-70
2022/07/16 13:32:02;;;;;;;9.20;2.63;;;;;;;;;;4999117;28;20034;-70
2022/07/16 13:34:27;;;;;;;8.00;2.15;;;;;;;;;;4998310;28;20029;-71
2022/07/16 13:36:52;;;;;;;7.20;2.70;;;;;;;;;;4999790;28;20038;-69
2022/07/16 13:39:17;;;;;;;13.40;2.33;;;;;;;;;;4996617;28;20113;-70
2022/07/16 13:41:42;;;;;;;5.37;2.27;;;;;;;;;;4998473;28;20034;-70
2022/07/16 13:44:08;;;;;;;10.10;2.33;;;;;;;;;;4996666;28;20072;-70
2022/07/16 13:46:33;;;;;;;12.07;2.42;;;;;;;;;;4994624;28;20034;-69
2022/07/16 13:48:58;;;;;;;9.82;2.75;;;;;;;;;;4996191;28;20662;-70
2022/07/16 13:51:23;;;;;;;13.20;2.07;;;;;;;;;;5001254;28;20038;-69
2022/07/16 13:53:49;;;;;;;10.20;2.40;;;;;;;;;;5003095;28;20014;-69
2022/07/16 13:56:14;;;;;;;12.05;2.30;;;;;;;;;;5002840;28;20033;-69
2022/07/16 13:58:39;;;;;;;17.50;2.40;;;;;;;;;;5005714;28;20025;-71
2022/07/16 14:01:04;;;;;;;7.13;2.00;;;;;;;;;;5000202;28;20041;-70
2022/07/16 14:03:30;;;;;;;6.47;2.10;;;;;;;;;;4999593;28;20039;-71
2022/07/16 14:06:03;;;;;;;10.03;2.23;;;;;;;;;;4997742;28;20476;-69
2022/07/16 14:08:28;;;;;;;11.25;2.50;;;;;;;;;;4999833;28;20271;-69
2022/07/16 14:10:53;;;;;;;13.30;2.27;;;;;;;;;;5002593;28;20029;-69
2022/07/16 14:13:19;;;;;;;10.32;2.20;;;;;;;;;;5002213;28;20552;-70
2022/07/16 14:15:45;;;;;;;8.27;2.13;;;;;;;;;;4997708;28;20407;-70
2022/07/16 14:18:10;;;;;;;15.77;2.35;;;;;;;;;;5001135;28;20026;-69
2022/07/16 14:20:37;;;;;;;12.77;2.70;;;;;;;;;;5003623;28;20080;-68
2022/07/16 14:23:02;;;;;;;11.98;2.30;;;;;;;;;;5000030;28;20030;-69
2022/07/16 14:25:27;;;;;;;14.40;2.10;;;;;;;;;;5004766;28;20345;-69
2022/07/16 14:27:53;;;;;;;14.37;2.43;;;;;;;;;;5001523;28;20037;-70
2022/07/16 14:30:18;;;;;;;9.32;2.55;;;;;;;;;;4996695;28;20722;-68
2022/07/16 14:32:44;;;;;;;25.42;2.22;;;;;;;;;;4998831;28;20029;-72
2022/07/16 14:35:10;;;;;;;6.30;1.67;;;;;;;;;;5004812;28;20030;-70